Time;durP1;ratioP1;P1;durP2;ratioP2;P2;SDS_P1;SDS_P2;PMS_P1;PMS_P2;Temp;Humidity;BMP_temperature;BMP_pressure;BME280_temperature;BME280_humidity;BME280_pressure;Samples;Min_cycle;Max_cycle;Signal;HPM_P1;HPM_P2
2023/07/14 00:00:39;;;;;;;3.60;1.40;;;15.30;99.00;;;;;;5032702;28;20443;-73
2023/07/14 00:03:05;;;;;;;2.40;1.03;;;15.20;99.60;;;;;;5032824;28;20889;-73
2023/07/14 00:05:34;;;;;;;11.87;1.37;;;15.20;99.50;;;;;;5031190;28;20439;-73
2023/07/14 00:08:01;;;;;;;2.10;1.23;;;15.20;99.60;;;;;;5034958;28;20425;-73
2023/07/14 00:10:32;;;;;;;2.00;0.90;;;15.10;99.70;;;;;;5032068;28;20492;-73
2023/07/14 00:13:00;;;;;;;2.10;0.97;;;15.10;99.70;;;;;;5032067;28;20563;-72
2023/07/14 00:15:27;;;;;;;3.53;1.67;;;15.10;99.50;;;;;;5032418;28;20464;-72
2023/07/14 00:18:00;;;;;;;2.13;1.10;;;15.10;99.40;;;;;;5030764;28;20850;-72
2023/07/14 00:20:29;;;;;;;1.70;1.00;;;15.10;99.60;;;;;;5019468;28;20513;-73
2023/07/14 00:22:56;;;;;;;1.67;0.97;;;15.10;99.50;;;;;;5031307;28;20500;-73
2023/07/14 00:25:24;;;;;;;3.07;1.37;;;15.10;99.90;;;;;;5032127;28;20500;-73
2023/07/14 00:27:52;;;;;;;2.13;1.13;;;15.10;99.90;;;;;;5031974;28;20598;-73
2023/07/14 00:30:25;;;;;;;4.63;1.20;;;15.10;99.90;;;;;;5032148;28;20432;-73
2023/07/14 00:32:54;;;;;;;1.80;1.10;;;15.10;99.90;;;;;;5031400;28;20428;-72
2023/07/14 00:35:20;;;;;;;5.17;1.70;;;15.10;99.90;;;;;;5031969;28;20777;-73
2023/07/14 00:37:47;;;;;;;4.83;1.13;;;15.00;99.90;;;;;;5031409;28;20409;-73
2023/07/14 00:40:29;;;;;;;2.17;1.27;;;14.90;99.90;;;;;;5032078;28;20420;-73
2023/07/14 00:42:57;;;;;;;2.03;1.07;;;14.90;99.90;;;;;;5031095;28;20421;-73
2023/07/14 00:45:27;;;;;;;2.50;1.40;;;14.80;99.90;;;;;;5032039;28;20418;-73
2023/07/14 00:47:57;;;;;;;3.20;1.50;;;14.70;99.90;;;;;;5031418;28;20425;-73
2023/07/14 00:50:31;;;;;;;1.50;0.73;;;14.70;99.90;;;;;;5031829;28;20430;-73
2023/07/14 00:52:59;;;;;;;4.80;1.30;;;14.60;99.90;;;;;;5017868;28;20417;-73
2023/07/14 00:55:27;;;;;;;1.77;1.10;;;14.70;99.90;;;;;;5030959;28;20796;-73
2023/07/14 00:57:55;;;;;;;2.67;1.10;;;14.60;99.90;;;;;;5031338;28;20405;-73
2023/07/14 01:00:39;;;;;;;4.00;1.40;;;14.60;99.90;;;;;;5031615;28;20401;-73
2023/07/14 01:03:14;;;;;;;3.90;1.57;;;14.70;99.90;;;;;;5031254;28;20413;-73
2023/07/14 01:05:40;;;;;;;4.73;1.63;;;14.50;99.90;;;;;;5031718;28;20933;-73
2023/07/14 01:08:06;;;;;;;2.90;0.97;;;14.50;99.90;;;;;;5034555;28;20449;-73
2023/07/14 01:10:32;;;;;;;2.33;1.27;;;14.50;99.90;;;;;;5031117;28;20183;-73
2023/07/14 01:13:04;;;;;;;3.20;1.20;;;14.50;99.90;;;;;;5030512;28;20178;-73
2023/07/14 01:15:31;;;;;;;2.50;1.17;;;14.40;99.90;;;;;;5029768;28;20240;-73
2023/07/14 01:17:56;;;;;;;2.00;1.00;;;14.40;99.90;;;;;;5031043;28;20417;-73
2023/07/14 01:20:22;;;;;;;3.00;1.13;;;14.40;99.90;;;;;;5031200;28;20475;-73
2023/07/14 01:23:29;;;;;;;2.43;1.30;;;14.50;99.90;;;;;;5030376;28;20642;-73
2023/07/14 01:26:13;;;;;;;2.00;1.00;;;14.40;99.90;;;;;;5031311;28;20205;-73
2023/07/14 01:28:39;;;;;;;3.07;1.27;;;14.30;99.90;;;;;;5030380;28;20432;-73
2023/07/14 01:31:08;;;;;;;6.40;1.63;;;14.30;99.90;;;;;;5030192;28;20421;-73
2023/07/14 01:33:33;;;;;;;7.17;1.50;;;14.20;99.90;;;;;;5030543;28;20448;-73
2023/07/14 01:36:00;;;;;;;3.63;1.70;;;14.20;99.90;;;;;;5030852;28;20468;-72
2023/07/14 01:38:26;;;;;;;1.97;1.07;;;14.20;99.90;;;;;;5030071;28;20549;-73
2023/07/14 01:40:53;;;;;;;2.57;1.33;;;14.10;99.90;;;;;;5030861;28;20422;-73
2023/07/14 01:43:19;;;;;;;31.07;1.77;;;14.00;99.90;;;;;;5030900;28;20409;-72
2023/07/14 01:45:56;;;;;;;1.67;0.73;;;14.00;99.90;;;;;;5031476;28;20424;-71
2023/07/14 01:48:26;;;;;;;4.40;1.37;;;14.00;99.90;;;;;;5031337;28;20750;-72
2023/07/14 01:50:56;;;;;;;4.80;1.57;;;14.00;99.90;;;;;;5030727;28;20421;-72
2023/07/14 01:53:45;;;;;;;3.90;1.60;;;13.90;99.90;;;;;;5030648;28;20464;-72
2023/07/14 01:56:15;;;;;;;2.10;1.17;;;14.00;99.90;;;;;;5017802;28;20448;-72
2023/07/14 01:59:14;;;;;;;3.17;1.50;;;13.80;99.90;;;;;;5031337;28;20992;-72
2023/07/14 02:01:44;;;;;;;2.27;1.23;;;13.80;99.90;;;;;;5030640;28;20424;-72
2023/07/14 02:04:24;;;;;;;3.67;1.63;;;13.80;99.90;;;;;;5030676;28;20413;-71
2023/07/14 02:06:49;;;;;;;2.27;1.13;;;13.80;99.90;;;;;;5032274;28;20575;-72
2023/07/14 02:09:23;;;;;;;2.97;1.33;;;13.80;99.90;;;;;;5034396;28;20496;-72
2023/07/14 02:11:53;;;;;;;1.97;1.00;;;13.80;99.90;;;;;;5032392;28;20201;-72
2023/07/14 02:14:21;;;;;;;3.57;1.67;;;13.80;99.90;;;;;;5034259;28;20896;-72
2023/07/14 02:16:49;;;;;;;2.13;1.00;;;13.80;99.90;;;;;;5034747;28;21457;-72
2023/07/14 02:19:22;;;;;;;6.50;1.10;;;13.80;99.90;;;;;;5033461;28;20427;-72
2023/07/14 02:21:49;;;;;;;6.20;1.60;;;13.80;99.90;;;;;;5030792;28;20984;-71
2023/07/14 02:24:23;;;;;;;2.20;1.27;;;13.70;99.90;;;;;;5030322;28;20440;-72
2023/07/14 02:26:56;;;;;;;2.80;1.20;;;13.70;99.90;;;;;;5030282;28;20426;-71
2023/07/14 02:29:22;;;;;;;2.10;1.20;;;13.60;99.90;;;;;;5030505;28;20496;-72
2023/07/14 02:32:00;;;;;;;3.17;1.77;;;13.60;99.90;;;;;;5030161;28;20515;-72
2023/07/14 02:34:35;;;;;;;3.40;1.20;;;13.60;99.90;;;;;;5030559;28;20196;-72
2023/07/14 02:37:03;;;;;;;2.60;1.40;;;13.60;99.90;;;;;;5029638;28;20460;-72
2023/07/14 02:39:36;;;;;;;6.60;1.10;;;13.60;99.90;;;;;;5029841;28;20417;-72
2023/07/14 02:42:03;;;;;;;1.90;1.03;;;13.60;99.90;;;;;;5032947;28;20497;-72
2023/07/14 02:44:36;;;;;;;1.73;0.83;;;13.50;99.90;;;;;;5033927;28;20416;-72
2023/07/14 02:47:16;;;;;;;3.40;0.90;;;13.50;99.90;;;;;;5033844;28;20551;-72
2023/07/14 02:49:42;;;;;;;3.30;1.70;;;13.40;99.90;;;;;;5021239;28;20423;-72
2023/07/14 02:52:08;;;;;;;3.07;1.60;;;13.40;99.90;;;;;;5032482;28;20464;-72
2023/07/14 02:54:33;;;;;;;4.47;1.37;;;13.30;99.90;;;;;;5033355;28;20420;-72
2023/07/14 02:56:59;;;;;;;2.03;1.00;;;13.30;99.90;;;;;;5033543;28;20210;-72
2023/07/14 02:59:24;;;;;;;10.20;1.70;;;13.20;99.90;;;;;;5034025;28;20181;-72
2023/07/14 03:01:50;;;;;;;2.80;1.10;;;13.30;99.90;;;;;;5033373;28;20174;-72
2023/07/14 03:04:16;;;;;;;2.87;1.10;;;13.30;99.90;;;;;;5033560;28;20621;-72
2023/07/14 03:06:41;;;;;;;4.07;1.40;;;13.30;99.90;;;;;;5033058;28;20198;-72
2023/07/14 03:09:07;;;;;;;1.57;0.83;;;13.30;99.90;;;;;;5036950;28;20182;-72
2023/07/14 03:11:32;;;;;;;2.83;1.33;;;13.40;99.90;;;;;;5032880;28;20194;-72
2023/07/14 03:13:58;;;;;;;2.30;0.90;;;13.30;99.90;;;;;;5033706;28;20190;-72
2023/07/14 03:16:25;;;;;;;2.13;1.20;;;13.40;99.90;;;;;;5033505;28;20202;-72
2023/07/14 03:18:50;;;;;;;2.33;1.00;;;13.20;99.90;;;;;;5033507;28;20179;-71
2023/07/14 03:21:17;;;;;;;3.40;1.57;;;13.20;99.90;;;;;;5033053;28;20413;-71
2023/07/14 03:23:42;;;;;;;2.60;1.37;;;13.10;99.90;;;;;;5033431;28;20179;-72
2023/07/14 03:26:09;;;;;;;5.73;1.10;;;13.10;99.90;;;;;;5033528;28;20428;-72
2023/07/14 03:28:36;;;;;;;2.80;1.37;;;13.00;99.90;;;;;;5032964;28;20515;-71
2023/07/14 03:31:02;;;;;;;2.90;1.10;;;13.00;99.90;;;;;;5032770;28;20428;-74
2023/07/14 03:33:29;;;;;;;1.50;0.80;;;13.00;99.90;;;;;;5032772;28;20862;-72
2023/07/14 03:35:56;;;;;;;4.50;1.17;;;13.00;99.90;;;;;;5032879;28;20465;-72
2023/07/14 03:38:22;;;;;;;4.77;1.57;;;13.00;99.90;;;;;;5032456;28;20430;-72
2023/07/14 03:40:47;;;;;;;2.30;1.33;;;13.00;99.90;;;;;;5033062;28;20424;-72
2023/07/14 03:43:13;;;;;;;2.27;1.37;;;12.90;99.90;;;;;;5032752;28;20185;-72
2023/07/14 03:45:38;;;;;;;1.90;1.20;;;12.90;99.90;;;;;;5032996;28;20196;-72
2023/07/14 03:48:04;;;;;;;3.90;1.43;;;12.90;99.90;;;;;;5032712;28;20197;-72
2023/07/14 03:50:31;;;;;;;2.80;1.20;;;12.90;99.90;;;;;;5032657;28;20721;-72
2023/07/14 03:52:56;;;;;;;4.77;1.80;;;13.00;99.90;;;;;;5031360;28;20424;-72
2023/07/14 03:55:22;;;;;;;3.00;1.50;;;13.00;99.90;;;;;;5031934;28;20417;-72
2023/07/14 03:57:47;;;;;;;10.20;2.13;;;13.00;99.90;;;;;;5032425;28;20175;-72
2023/07/14 04:00:17;;;;;;;3.80;1.67;;;13.00;99.90;;;;;;5032782;28;20182;-72
2023/07/14 04:02:44;;;;;;;6.10;1.80;;;13.10;99.90;;;;;;5033022;28;20672;-72
2023/07/14 04:05:11;;;;;;;4.83;1.23;;;13.10;99.90;;;;;;5031717;28;20829;-72
2023/07/14 04:07:37;;;;;;;2.17;1.10;;;13.10;99.90;;;;;;5035749;28;20455;-72
2023/07/14 04:10:04;;;;;;;1.97;1.10;;;13.20;99.90;;;;;;5032465;28;20409;-72
2023/07/14 04:12:31;;;;;;;2.63;1.50;;;13.30;99.90;;;;;;5031868;28;20437;-72
2023/07/14 04:14:57;;;;;;;2.63;1.47;;;13.40;99.90;;;;;;5032505;28;20487;-72
2023/07/14 04:17:22;;;;;;;2.70;1.43;;;13.40;99.90;;;;;;5032509;28;20460;-72
2023/07/14 04:19:49;;;;;;;2.87;1.40;;;13.40;99.90;;;;;;5032575;28;20487;-72
2023/07/14 04:22:15;;;;;;;2.03;0.73;;;13.50;99.90;;;;;;5030500;28;20186;-72
2023/07/14 04:24:41;;;;;;;2.87;1.37;;;13.50;99.90;;;;;;5032209;28;21234;-72
2023/07/14 04:27:07;;;;;;;13.43;1.53;;;13.60;99.90;;;;;;5032222;28;20416;-72
2023/07/14 04:29:32;;;;;;;4.50;1.80;;;13.60;99.90;;;;;;5032414;28;20217;-72
2023/07/14 04:31:58;;;;;;;2.77;1.40;;;13.70;99.90;;;;;;5031650;28;20413;-72
2023/07/14 04:34:26;;;;;;;3.67;1.43;;;13.80;99.90;;;;;;5032270;28;20208;-73
2023/07/14 04:36:52;;;;;;;5.33;1.73;;;13.80;99.90;;;;;;5031216;28;20480;-73
2023/07/14 04:39:17;;;;;;;3.37;1.43;;;13.90;99.90;;;;;;5031911;28;20441;-73
2023/07/14 04:41:44;;;;;;;2.50;1.27;;;14.00;99.90;;;;;;5031052;28;20177;-73
2023/07/14 04:44:13;;;;;;;1.77;0.97;;;14.10;99.90;;;;;;5032185;28;20171;-72
2023/07/14 04:46:40;;;;;;;4.53;1.80;;;14.10;99.90;;;;;;5032094;28;20421;-72
2023/07/14 04:49:07;;;;;;;2.70;1.60;;;14.10;99.90;;;;;;5032146;28;20467;-73
2023/07/14 04:51:33;;;;;;;3.60;1.20;;;14.20;99.90;;;;;;5031291;28;20421;-72
2023/07/14 04:53:59;;;;;;;3.00;1.53;;;14.30;99.90;;;;;;5030755;23;20500;-73
2023/07/14 04:56:25;;;;;;;3.53;2.00;;;14.40;99.90;;;;;;5012073;28;20466;-73
2023/07/14 04:58:51;;;;;;;2.77;1.20;;;14.50;99.90;;;;;;5008761;28;20426;-72
2023/07/14 05:01:17;;;;;;;5.60;1.20;;;14.60;99.90;;;;;;5011327;28;20437;-72
2023/07/14 05:03:44;;;;;;;2.50;1.53;;;14.70;99.90;;;;;;5011716;28;20186;-71
2023/07/14 05:06:10;;;;;;;1.80;0.93;;;14.80;99.90;;;;;;5011186;28;20519;-71
2023/07/14 05:08:35;;;;;;;3.90;1.93;;;14.80;99.90;;;;;;5011595;28;20422;-71
2023/07/14 05:11:01;;;;;;;5.10;1.40;;;14.90;99.90;;;;;;5011684;28;20484;-71
2023/07/14 05:13:26;;;;;;;2.90;1.60;;;15.00;99.90;;;;;;5010831;28;20190;-71
2023/07/14 05:15:55;;;;;;;6.20;1.43;;;15.10;99.90;;;;;;5011728;28;20217;-72
2023/07/14 05:18:20;;;;;;;4.03;1.67;;;15.20;99.90;;;;;;5011430;28;20191;-72
2023/07/14 05:20:46;;;;;;;3.97;2.20;;;15.30;99.90;;;;;;5011291;28;20414;-71
2023/07/14 05:23:11;;;;;;;4.07;1.57;;;15.40;99.90;;;;;;5010820;28;20209;-71
2023/07/14 05:25:37;;;;;;;4.37;1.57;;;15.50;99.90;;;;;;5011755;28;20183;-71
2023/07/14 05:28:04;;;;;;;2.93;1.60;;;15.70;99.90;;;;;;5011238;28;20190;-72
2023/07/14 05:30:30;;;;;;;3.13;1.63;;;15.70;99.90;;;;;;5011572;28;20924;-72
2023/07/14 05:32:56;;;;;;;2.63;1.67;;;15.90;99.90;;;;;;5011643;28;20418;-72
2023/07/14 05:35:22;;;;;;;2.23;1.30;;;15.90;99.90;;;;;;5012399;28;20859;-72
2023/07/14 05:37:47;;;;;;;28.17;1.70;;;16.00;99.90;;;;;;5004110;28;20180;-72
2023/07/14 05:40:15;;;;;;;3.87;1.13;;;16.10;99.90;;;;;;5010313;28;20414;-72
2023/07/14 05:42:40;;;;;;;2.10;1.27;;;16.10;99.90;;;;;;5004470;28;20210;-72
2023/07/14 05:45:08;;;;;;;2.77;1.37;;;16.30;99.90;;;;;;5011638;28;20462;-72
2023/07/14 05:47:35;;;;;;;5.00;1.70;;;16.40;99.90;;;;;;5008163;28;20214;-72
2023/07/14 05:50:01;;;;;;;2.80;1.40;;;16.50;99.90;;;;;;5012071;28;20429;-72
2023/07/14 05:52:27;;;;;;;3.00;1.23;;;16.60;99.90;;;;;;5009272;28;20446;-72
2023/07/14 05:54:52;;;;;;;5.63;1.20;;;16.60;99.90;;;;;;5011116;28;20646;-72
2023/07/14 05:57:18;;;;;;;2.37;1.13;;;16.70;99.90;;;;;;5011693;28;20219;-72
2023/07/14 05:59:43;;;;;;;2.90;1.50;;;16.70;99.90;;;;;;5012628;28;20182;-71
2023/07/14 06:02:14;;;;;;;2.40;1.30;;;16.70;99.90;;;;;;5011469;28;20640;-72
2023/07/14 06:04:45;;;;;;;7.90;1.47;;;16.70;99.90;;;;;;4996156;28;20218;-72
2023/07/14 06:07:12;;;;;;;1.80;1.27;;;16.70;99.90;;;;;;5000608;28;20460;-71
2023/07/14 06:09:38;;;;;;;3.00;1.47;;;16.70;99.90;;;;;;5006612;28;20503;-71
2023/07/14 06:12:06;;;;;;;4.40;1.27;;;16.70;99.90;;;;;;5007650;28;20410;-71
2023/07/14 06:14:36;;;;;;;3.00;1.43;;;16.70;99.90;;;;;;5008515;28;20430;-72
2023/07/14 06:17:03;;;;;;;2.20;1.20;;;16.80;99.90;;;;;;5012617;28;20465;-72
2023/07/14 06:19:29;;;;;;;3.80;2.10;;;16.80;99.90;;;;;;5004627;28;20763;-71
2023/07/14 06:21:55;;;;;;;3.23;1.70;;;16.80;99.90;;;;;;5009766;28;20418;-72
2023/07/14 06:24:21;;;;;;;2.60;1.37;;;16.90;99.90;;;;;;4999849;28;20453;-72
2023/07/14 06:26:46;;;;;;;2.03;1.10;;;16.90;99.90;;;;;;5005110;28;20193;-72
2023/07/14 06:29:12;;;;;;;3.60;1.63;;;17.10;99.90;;;;;;4999556;28;20183;-71
2023/07/14 06:31:38;;;;;;;1.67;0.90;;;17.30;99.90;;;;;;5013410;28;20205;-72
2023/07/14 06:34:04;;;;;;;5.20;1.70;;;17.40;99.90;;;;;;5009841;28;20179;-71
2023/07/14 06:36:30;;;;;;;3.17;1.17;;;17.60;99.90;;;;;;5011996;28;21238;-71
2023/07/14 06:38:56;;;;;;;3.97;1.37;;;17.80;99.40;;;;;;5014942;28;20428;-71
2023/07/14 06:41:21;;;;;;;2.10;1.07;;;18.20;97.80;;;;;;4996499;28;20184;-71
2023/07/14 06:43:47;;;;;;;1.70;1.00;;;18.50;95.40;;;;;;5003012;28;20794;-71
2023/07/14 06:46:13;;;;;;;2.13;0.90;;;18.70;94.20;;;;;;5012340;28;20506;-70
2023/07/14 06:48:38;;;;;;;3.23;1.07;;;18.80;94.20;;;;;;5013677;28;20183;-69
2023/07/14 06:51:04;;;;;;;3.30;1.30;;;19.00;93.80;;;;;;5011627;28;20658;-69
2023/07/14 06:53:30;;;;;;;3.60;1.03;;;19.20;93.10;;;;;;5006538;28;20246;-69
2023/07/14 06:55:55;;;;;;;2.13;1.00;;;19.40;92.20;;;;;;5008014;28;20202;-69
2023/07/14 06:58:21;;;;;;;1.70;0.90;;;19.60;91.80;;;;;;5012413;28;20201;-69
2023/07/14 07:00:46;;;;;;;1.77;0.87;;;19.70;91.50;;;;;;5003805;28;20180;-69
2023/07/14 07:03:12;;;;;;;9.10;1.40;;;19.90;91.90;;;;;;5005617;28;20757;-69
2023/07/14 07:05:40;;;;;;;2.60;0.77;;;20.00;90.80;;;;;;5011152;28;20187;-69
2023/07/14 07:08:10;;;;;;;2.10;0.93;;;20.20;91.50;;;;;;5011768;28;20195;-70
2023/07/14 07:10:36;;;;;;;3.37;1.43;;;20.40;90.40;;;;;;5013204;28;20419;-70
2023/07/14 07:13:02;;;;;;;2.17;1.00;;;20.60;88.30;;;;;;5002421;28;20874;-69
2023/07/14 07:15:27;;;;;;;3.27;0.90;;;20.60;90.30;;;;;;5008653;28;20667;-69
2023/07/14 07:17:53;;;;;;;1.70;0.90;;;20.80;88.10;;;;;;5011161;28;20258;-69
2023/07/14 07:20:19;;;;;;;4.50;1.00;;;20.90;89.00;;;;;;5012958;28;20549;-67
2023/07/14 07:22:46;;;;;;;1.90;0.87;;;21.00;86.90;;;;;;5002340;28;20183;-68
2023/07/14 07:25:13;;;;;;;3.63;0.93;;;21.20;89.10;;;;;;4998446;28;20182;-65
2023/07/14 07:27:39;;;;;;;4.57;1.30;;;21.40;88.50;;;;;;4998064;28;20751;-66
2023/07/14 07:30:06;;;;;;;2.20;1.20;;;21.50;85.50;;;;;;5005436;28;20422;-65
2023/07/14 07:32:32;;;;;;;3.07;1.20;;;21.80;87.30;;;;;;5000077;28;20245;-66
2023/07/14 07:34:59;;;;;;;2.63;1.03;;;22.10;86.10;;;;;;5005699;28;20453;-66
2023/07/14 07:37:25;;;;;;;3.47;1.07;;;22.30;85.60;;;;;;5001870;28;20458;-66
2023/07/14 07:39:53;;;;;;;2.43;1.03;;;22.60;83.20;;;;;;5003603;28;20430;-66
2023/07/14 07:42:19;;;;;;;1.73;0.70;;;22.90;82.30;;;;;;5003570;28;20438;-66
2023/07/14 07:44:45;;;;;;;2.00;1.10;;;23.40;78.40;;;;;;5005569;28;20431;-65
2023/07/14 07:47:12;;;;;;;2.40;0.73;;;24.20;78.10;;;;;;5007717;28;20233;-65
2023/07/14 07:49:38;;;;;;;2.23;0.93;;;24.50;72.70;;;;;;5008017;28;20203;-66
2023/07/14 07:52:04;;;;;;;2.03;0.90;;;24.70;75.80;;;;;;5006240;28;20437;-66
2023/07/14 07:54:30;;;;;;;3.50;1.20;;;25.10;72.20;;;;;;5008925;28;20178;-66
2023/07/14 07:56:56;;;;;;;1.90;0.90;;;25.30;71.30;;;;;;5004650;28;20209;-66
2023/07/14 07:59:22;;;;;;;2.45;1.17;;;25.80;70.80;;;;;;5008257;28;20639;-66
2023/07/14 08:01:47;;;;;;;2.22;1.25;;;26.40;69.20;;;;;;5008931;28;20533;-66
2023/07/14 08:04:16;;;;;;;1.70;0.82;;;27.00;66.80;;;;;;5002881;28;20253;-66
2023/07/14 08:06:42;;;;;;;3.95;1.77;;;27.10;66.20;;;;;;4996605;28;20271;-66
2023/07/14 08:09:09;;;;;;;3.42;1.02;;;27.10;66.20;;;;;;4999002;28;20294;-65
2023/07/14 08:11:35;;;;;;;3.15;1.13;;;27.30;66.80;;;;;;5004999;28;20193;-66
2023/07/14 08:14:02;;;;;;;2.13;1.00;;;27.20;66.80;;;;;;5005938;28;20183;-65
2023/07/14 08:16:28;;;;;;;4.03;1.48;;;27.10;66.20;;;;;;5001930;28;20221;-66
2023/07/14 08:18:54;;;;;;;2.28;1.10;;;27.40;64.90;;;;;;5004403;28;20261;-66
2023/07/14 08:21:20;;;;;;;5.28;1.42;;;27.60;64.00;;;;;;5006810;28;20258;-66
2023/07/14 08:23:45;;;;;;;2.00;0.80;;;27.30;63.30;;;;;;5010333;28;20174;-66
2023/07/14 08:26:12;;;;;;;2.90;1.02;;;27.20;64.00;;;;;;5012058;28;20198;-66
2023/07/14 08:28:38;;;;;;;2.90;1.17;;;26.70;64.50;;;;;;5006806;28;20213;-66
2023/07/14 08:31:06;;;;;;;7.38;1.10;;;27.10;64.70;;;;;;5020149;28;20189;-68
2023/07/14 08:33:33;;;;;;;4.63;1.83;;;27.20;65.20;;;;;;5024367;28;20178;-68
2023/07/14 08:36:00;;;;;;;11.65;1.65;;;26.50;65.10;;;;;;5019548;28;20216;-68
2023/07/14 08:38:27;;;;;;;2.55;0.93;;;26.50;64.60;;;;;;5022348;28;20298;-68
2023/07/14 08:41:09;;;;;;;1.90;1.00;;;26.60;65.60;;;;;;5025333;28;20170;-68
2023/07/14 08:44:12;;;;;;;2.78;1.00;;;26.80;66.00;;;;;;5017158;28;20676;-68
2023/07/14 08:46:56;;;;;;;4.95;1.63;;;26.80;64.30;;;;;;5027416;28;20188;-68
2023/07/14 08:49:34;;;;;;;1.98;0.80;;;27.10;64.10;;;;;;5026363;28;20175;-68
2023/07/14 08:52:07;;;;;;;3.47;1.30;;;26.20;63.70;;;;;;5027749;28;20178;-68
2023/07/14 08:54:45;;;;;;;3.03;2.03;;;25.90;65.70;;;;;;5020512;28;20209;-69
2023/07/14 08:57:21;;;;;;;1.95;1.05;;;25.50;67.10;;;;;;5024247;28;20213;-68
2023/07/14 08:59:50;;;;;;;6.43;1.83;;;25.40;66.50;;;;;;5014603;28;20193;-68
2023/07/14 09:02:32;;;;;;;2.97;1.27;;;25.30;67.10;;;;;;5022728;28;20193;-68
2023/07/14 09:05:24;;;;;;;3.20;1.10;;;25.00;68.80;;;;;;5017788;28;20171;-68
2023/07/14 09:07:51;;;;;;;3.60;1.30;;;24.90;67.40;;;;;;5015867;28;20197;-68
2023/07/14 09:10:17;;;;;;;2.90;1.03;;;25.30;67.50;;;;;;5023950;28;20681;-69
2023/07/14 09:13:22;;;;;;;5.43;0.90;;;25.70;67.70;;;;;;5018490;28;20213;-68
2023/07/14 09:15:49;;;;;;;3.80;1.77;;;25.40;66.80;;;;;;5024248;28;20209;-69
2023/07/14 09:18:20;;;;;;;2.77;1.10;;;25.90;67.70;;;;;;5024593;28;20231;-68
2023/07/14 09:21:08;;;;;;;2.63;1.50;;;25.90;65.90;;;;;;5023495;28;20597;-69
2023/07/14 09:23:44;;;;;;;3.77;1.47;;;25.80;65.50;;;;;;5015175;28;20194;-69
2023/07/14 09:26:29;;;;;;;3.20;1.10;;;25.80;67.70;;;;;;5026448;28;20181;-69
2023/07/14 09:28:56;;;;;;;2.60;1.00;;;26.00;66.90;;;;;;5018588;28;20182;-68
2023/07/14 09:31:41;;;;;;;5.40;1.00;;;25.70;65.50;;;;;;5026538;28;20182;-69
2023/07/14 09:34:32;;;;;;;4.83;1.57;;;25.30;65.60;;;;;;5022215;28;20217;-69
2023/07/14 09:36:58;;;;;;;3.20;1.13;;;25.20;66.10;;;;;;5019272;28;20724;-68
2023/07/14 09:39:32;;;;;;;9.00;1.53;;;25.30;66.80;;;;;;5023943;28;20190;-69
2023/07/14 09:42:00;;;;;;;2.30;0.90;;;25.50;67.50;;;;;;5021840;28;20185;-69
2023/07/14 09:44:26;;;;;;;3.17;1.40;;;25.40;65.70;;;;;;5027824;28;20941;-69
2023/07/14 09:46:53;;;;;;;17.80;1.33;;;25.50;67.30;;;;;;5021136;28;20437;-68
2023/07/14 09:49:38;;;;;;;1.70;1.10;;;25.30;68.00;;;;;;5025726;28;20558;-69
2023/07/14 09:52:18;;;;;;;2.00;1.03;;;25.20;67.10;;;;;;5023684;28;20421;-69
2023/07/14 09:54:52;;;;;;;4.53;1.27;;;24.80;67.00;;;;;;5025616;28;20499;-69
2023/07/14 09:57:21;;;;;;;2.20;1.10;;;24.80;69.00;;;;;;5023851;28;20476;-69
2023/07/14 09:59:56;;;;;;;2.23;1.17;;;24.60;67.20;;;;;;5027106;28;20421;-69
2023/07/14 10:02:32;;;;;;;3.43;1.20;;;24.40;68.70;;;;;;5024247;28;20501;-69
2023/07/14 10:05:23;;;;;;;2.97;1.30;;;24.50;69.10;;;;;;5020782;28;20495;-68
2023/07/14 10:07:49;;;;;;;5.50;1.77;;;24.60;68.90;;;;;;5021804;28;20413;-69
2023/07/14 10:10:19;;;;;;;1.90;1.00;;;24.60;67.90;;;;;;5025058;28;20418;-69
2023/07/14 10:12:49;;;;;;;1.87;0.97;;;24.90;68.70;;;;;;5023216;28;20580;-69
2023/07/14 10:15:32;;;;;;;2.77;1.00;;;25.00;66.20;;;;;;5027486;28;20418;-69
2023/07/14 10:17:59;;;;;;;2.30;1.10;;;25.20;65.60;;;;;;5027525;28;20413;-69
2023/07/14 10:20:27;;;;;;;3.70;1.10;;;25.20;66.50;;;;;;5025362;28;20417;-69
2023/07/14 10:22:54;;;;;;;2.90;1.10;;;25.40;64.10;;;;;;5027257;28;20475;-69
2023/07/14 10:25:22;;;;;;;4.43;1.00;;;25.10;66.00;;;;;;5030129;28;20447;-69
2023/07/14 10:28:11;;;;;;;1.80;0.93;;;25.10;68.00;;;;;;5020384;28;20425;-69
2023/07/14 10:30:46;;;;;;;2.10;0.87;;;25.40;65.90;;;;;;5013242;28;20917;-69
2023/07/14 10:33:24;;;;;;;4.07;1.47;;;25.30;66.50;;;;;;5025703;28;20752;-69
2023/07/14 10:35:59;;;;;;;4.77;0.90;;;25.40;65.70;;;;;;5026760;28;20547;-69
2023/07/14 10:38:36;;;;;;;2.33;0.90;;;25.30;69.30;;;;;;5025878;28;20471;-69
2023/07/14 10:41:05;;;;;;;2.30;1.30;;;25.70;66.60;;;;;;5028573;28;20431;-69
2023/07/14 10:43:36;;;;;;;3.60;1.43;;;25.90;66.40;;;;;;5023977;28;20559;-69
2023/07/14 10:46:30;;;;;;;1.83;0.97;;;25.50;66.20;;;;;;5021137;28;21035;-69
2023/07/14 10:49:16;;;;;;;9.13;1.10;;;25.20;64.90;;;;;;5027048;28;20554;-69
2023/07/14 10:51:44;;;;;;;2.43;1.07;;;24.90;64.90;;;;;;5014370;28;20466;-68
2023/07/14 10:54:16;;;;;;;2.27;1.07;;;24.90;67.10;;;;;;5020034;28;20432;-69
2023/07/14 10:57:09;;;;;;;7.47;1.70;;;24.90;66.80;;;;;;5025550;28;20567;-69
2023/07/14 11:00:24;;;;;;;2.07;1.20;;;24.90;67.80;;;;;;5021674;28;20825;-69
2023/07/14 11:02:57;;;;;;;3.10;0.77;;;24.90;66.80;;;;;;5013139;28;20420;-68
2023/07/14 11:05:25;;;;;;;3.40;1.60;;;25.00;65.20;;;;;;5026137;28;20503;-69
2023/07/14 11:07:52;;;;;;;1.50;0.67;;;25.00;66.00;;;;;;5026756;28;20434;-69
2023/07/14 11:10:29;;;;;;;1.63;0.77;;;25.10;66.50;;;;;;5030814;28;20431;-69
2023/07/14 11:13:32;;;;;;;1.90;1.03;;;25.20;66.30;;;;;;5031848;28;20455;-69
2023/07/14 11:16:06;;;;;;;2.53;0.93;;;25.20;67.10;;;;;;5020774;28;20455;-69
2023/07/14 11:18:49;;;;;;;2.53;1.13;;;25.60;67.00;;;;;;5032558;28;20448;-69
2023/07/14 11:21:38;;;;;;;5.23;1.07;;;25.70;65.60;;;;;;5029849;28;20420;-69
2023/07/14 11:24:16;;;;;;;2.17;1.07;;;25.50;65.40;;;;;;5027853;28;20412;-69
2023/07/14 11:27:19;;;;;;;5.63;1.47;;;25.40;65.60;;;;;;5032412;28;20505;-69
2023/07/14 11:29:56;;;;;;;2.07;0.93;;;25.60;64.00;;;;;;5021141;28;20920;-69
2023/07/14 11:32:26;;;;;;;2.40;1.00;;;26.00;65.90;;;;;;5017698;28;20413;-69
2023/07/14 11:35:05;;;;;;;4.10;1.90;;;26.00;64.80;;;;;;5028851;28;20765;-68
2023/07/14 11:37:49;;;;;;;7.93;1.40;;;25.90;64.00;;;;;;5029106;28;20459;-69
2023/07/14 11:40:21;;;;;;;2.90;1.60;;;25.80;64.50;;;;;;5029976;28;20455;-69
2023/07/14 11:42:59;;;;;;;1.80;0.97;;;26.00;64.80;;;;;;5030074;28;20474;-69
2023/07/14 11:45:28;;;;;;;2.83;0.90;;;26.20;64.60;;;;;;5028782;28;20487;-69
2023/07/14 11:47:57;;;;;;;4.70;1.53;;;26.50;65.00;;;;;;5025260;28;20412;-69
2023/07/14 11:50:24;;;;;;;3.50;1.37;;;26.90;65.00;;;;;;5026055;28;20460;-69
2023/07/14 11:53:06;;;;;;;3.20;1.60;;;27.10;62.20;;;;;;5027110;28;20583;-69
2023/07/14 11:55:36;;;;;;;2.87;1.20;;;27.10;61.50;;;;;;5023361;28;20179;-69
2023/07/14 11:58:20;;;;;;;3.27;1.10;;;26.90;62.20;;;;;;5027459;28;20632;-69
2023/07/14 12:00:58;;;;;;;3.93;1.40;;;26.70;62.40;;;;;;5019885;28;20185;-69
2023/07/14 12:03:38;;;;;;;5.67;1.20;;;26.60;63.50;;;;;;5025403;28;20208;-69
2023/07/14 12:06:21;;;;;;;3.90;0.97;;;26.70;63.30;;;;;;5026185;28;20260;-69
2023/07/14 12:09:10;;;;;;;7.33;1.80;;;26.90;62.90;;;;;;5021355;28;20630;-69
2023/07/14 12:11:39;;;;;;;6.50;1.50;;;26.70;62.60;;;;;;5025451;28;20186;-69
2023/07/14 12:14:34;;;;;;;4.73;1.30;;;26.70;63.50;;;;;;5020135;28;20193;-69
2023/07/14 12:17:00;;;;;;;2.13;0.93;;;26.60;62.80;;;;;;5010281;28;20246;-69
2023/07/14 12:19:32;;;;;;;3.73;1.67;;;26.60;63.90;;;;;;5016948;28;20300;-69
2023/07/14 12:22:06;;;;;;;4.77;1.33;;;26.80;62.60;;;;;;5019029;28;20185;-69
2023/07/14 12:24:39;;;;;;;2.23;1.30;;;26.70;61.10;;;;;;5016652;28;20189;-69
2023/07/14 12:27:34;;;;;;;2.83;1.20;;;26.60;62.40;;;;;;5027398;28;20192;-69
2023/07/14 12:30:20;;;;;;;5.53;1.10;;;26.60;64.40;;;;;;5030701;28;20257;-69
2023/07/14 12:32:46;;;;;;;2.60;0.83;;;26.80;61.70;;;;;;5029172;28;20178;-69
2023/07/14 12:35:16;;;;;;;2.97;1.43;;;26.80;61.80;;;;;;5022911;28;20201;-69
2023/07/14 12:37:42;;;;;;;1.93;1.00;;;26.70;61.60;;;;;;5015673;28;20254;-69
2023/07/14 12:40:18;;;;;;;1.93;0.90;;;27.10;59.80;;;;;;5018603;28;20572;-69
2023/07/14 12:42:45;;;;;;;2.63;1.33;;;27.50;61.70;;;;;;5024946;28;20174;-70
2023/07/14 12:45:12;;;;;;;3.50;1.10;;;27.30;60.90;;;;;;5023961;28;20175;-70
2023/07/14 12:47:43;;;;;;;4.63;1.20;;;27.30;61.20;;;;;;5023915;28;20635;-69
2023/07/14 12:50:21;;;;;;;2.43;1.07;;;27.20;60.90;;;;;;5028271;28;20178;-68
2023/07/14 12:52:49;;;;;;;3.73;1.50;;;27.20;61.90;;;;;;5023077;28;20245;-69
2023/07/14 12:55:18;;;;;;;2.60;1.47;;;27.10;59.40;;;;;;5016044;28;20217;-69
2023/07/14 12:57:46;;;;;;;2.70;1.10;;;27.10;60.20;;;;;;5020608;28;20205;-69
2023/07/14 13:00:24;;;;;;;3.70;1.40;;;27.10;59.10;;;;;;5025037;28;20174;-70
2023/07/14 13:02:51;;;;;;;4.03;1.40;;;27.40;58.40;;;;;;5028801;28;20205;-69